W2GM Weather Reports


Display with metric or nautical units.
time (UTC)temp
F
wind
direction
speed
MPH
gust
MPH
rain 1hr
in
rain 24hr
in
rain mn
in
humidity
%
barometer
mb
20260504141236 60 239 3.0 9.0 0.00 0.00 0.00 51 1012.7
20260504141149 60 221 3.0 9.0 0.00 0.00 0.00 51 1012.7
20260504140933 59 219 4.0 9.0 0.00 0.00 0.00 52 1012.8
20260504140832 59 242 4.0 9.0 0.00 0.00 0.00 51 1012.8
20260504140747 59 238 4.0 9.0 0.00 0.00 0.00 52 1012.7
20260504140530 59 238 3.0 9.0 0.00 0.00 0.00 50 1012.8
20260504140430 59 219 3.0 9.0 0.00 0.00 0.00 51 1012.8
20260504140344 59 252 3.0 9.0 0.00 0.00 0.00 51 1012.8
20260504140128 59 238 3.0 9.0 0.00 0.00 0.00 51 1012.7
20260504130758 55 182 1.0 5.0 0.00 0.00 0.00 56 1013.1
20260504130659 55 179 1.0 5.0 0.00 0.00 0.00 58 1013.2
20260504130557 55 179 2.0 5.0 0.00 0.00 0.00 58 1013.2
20260504130455 54 243 2.0 5.0 0.00 0.00 0.00 57 1013.2
20260504130356 54 244 2.0 5.0 0.00 0.00 0.00 56 1013.2
20260504130255 54 244 2.0 5.0 0.00 0.00 0.00 57 1013.3
20260504130156 54 244 1.0 5.0 0.00 0.00 0.00 57 1013.2
20260504120240 49 248 1.0 3.0 0.00 0.00 0.00 63 1013.6
20260504120140 49 248 1.0 3.0 0.00 0.00 0.00 63 1013.6
20260504110639 44 249 0.0 1.0 0.00 0.00 0.00 70 1013.6
20260504110555 44 249 0.0 1.0 0.00 0.00 0.00 71 1013.7
20260504110342 44 249 0.0 1.0 0.00 0.00 0.00 71 1013.6
20260504110240 44 249 0.0 1.0 0.00 0.00 0.00 71 1013.6
20260504110142 44 249 0.0 1.0 0.00 0.00 0.00 71 1013.6
20260504100435 42 249 0.0 1.0 0.00 0.00 0.00 72 1013.5
20260504100333 42 249 0.0 1.0 0.00 0.00 0.00 72 1013.6
20260504100249 42 249 0.0 1.0 0.00 0.00 0.00 72 1013.5
20260504081912 42 249 0.0 0.0 0.00 0.00 0.00 72 1013.2
20260504081811 42 249 0.0 0.0 0.00 0.00 0.00 72 1013.1
20260504081710 42 249 0.0 0.0 0.00 0.00 0.00 72 1013.1
20260504081610 42 249 0.0 0.0 0.00 0.00 0.00 72 1013.1
20260504081509 42 249 0.0 0.0 0.00 0.00 0.00 72 1013.2
20260504081409 42 249 0.0 0.0 0.00 0.00 0.00 72 1013.2
20260504081322 42 249 0.0 0.0 0.00 0.00 0.00 72 1013.2
20260504081136 42 249 0.0 0.0 0.00 0.00 0.00 72 1013.2
20260504080804 42 249 0.0 1.0 0.00 0.00 0.00 72 1013.2
20260504080701 42 249 0.0 1.0 0.00 0.00 0.00 72 1013.2
20260504080615 42 249 0.0 1.0 0.00 0.00 0.00 72 1013.2
20260504080402 42 249 0.0 1.0 0.00 0.00 0.00 72 1013.2
20260504080302 42 249 0.0 1.0 0.00 0.00 0.00 72 1013.2
20260504070323 42 249 0.0 0.0 0.00 0.00 0.00 73 1013.0
20260504070224 42 249 0.0 0.0 0.00 0.00 0.00 73 1012.9
20260504070137 42 249 0.0 0.0 0.00 0.00 0.00 72 1012.9
20260504060147 43 249 0.0 0.0 0.00 0.00 0.00 70 1012.9
20260504050751 43 249 0.0 0.0 0.00 0.00 0.00 71 1012.7
20260504050303 42 249 0.0 0.0 0.00 0.00 0.00 71 1012.7
20260504050204 42 249 0.0 0.0 0.00 0.00 0.00 71 1012.7
20260504050001 42 249 0.0 0.0 0.00 0.00 0.00 71 1012.7
20260504045901 42 249 0.0 0.0 0.00 0.00 0.00 71 1012.7
20260504045800 42 249 0.0 0.0 0.00 0.00 0.00 71 1012.7
20260504045659 42 249 0.0 0.0 0.00 0.00 0.00 71 1012.7
20260504045557 42 249 0.0 0.0 0.00 0.00 0.00 71 1012.7
20260504045525 42 249 0.0 0.0 0.00 0.00 0.00 71 1012.7
20260504045156 42 249 0.0 0.0 0.00 0.00 0.00 71 1012.7
20260504045123 42 249 0.0 0.0 0.00 0.00 0.00 71 1012.7
20260504044807 42 249 0.0 0.0 0.00 0.00 0.00 71 1012.7
20260504044604 42 249 0.0 0.0 0.00 0.00 0.00 71 1012.7
20260504044348 42 249 0.0 0.0 0.00 0.00 0.00 72 1012.6
20260504044302 42 249 0.0 0.0 0.00 0.00 0.00 72 1012.7
20260504044045 42 249 0.0 0.0 0.00 0.00 0.00 72 1012.6
20260504043946 42 249 0.0 0.0 0.00 0.00 0.00 71 1012.7
20260504043900 42 249 0.0 0.0 0.00 0.00 0.00 71 1012.7
20260504043644 42 249 0.0 0.0 0.00 0.00 0.00 72 1012.7
20260504043540 42 249 0.0 0.0 0.00 0.00 0.00 72 1012.7
20260504043440 42 249 0.0 0.0 0.00 0.00 0.00 72 1012.7
20260504043340 42 249 0.0 0.0 0.00 0.00 0.00 71 1012.7
20260504043239 42 249 0.0 0.0 0.00 0.00 0.00 72 1012.6
20260504043151 42 249 0.0 0.0 0.00 0.00 0.00 72 1012.6
20260504042936 42 249 0.0 0.0 0.00 0.00 0.00 71 1012.6
20260504042837 42 249 0.0 0.0 0.00 0.00 0.00 71 1012.6
20260504042735 42 249 0.0 0.0 0.00 0.00 0.00 71 1012.5
20260504042634 42 249 0.0 0.0 0.00 0.00 0.00 71 1012.5
20260504042533 42 249 0.0 0.0 0.00 0.00 0.00 71 1012.5
20260504042434 42 249 0.0 0.0 0.00 0.00 0.00 71 1012.5
20260504042331 42 249 0.0 0.0 0.00 0.00 0.00 71 1012.5
20260504042246 42 249 0.0 0.0 0.00 0.00 0.00 71 1012.5
20260504042044 42 249 0.0 0.0 0.00 0.00 0.00 71 1012.5
20260504041842 42 249 0.0 0.0 0.00 0.00 0.00 71 1012.4
20260504041628 42 249 0.0 0.0 0.00 0.00 0.00 71 1012.4
20260504041524 42 249 0.0 0.0 0.00 0.00 0.00 72 1012.4
20260504041425 42 249 0.0 0.0 0.00 0.00 0.00 72 1012.4
20260504041326 42 249 0.0 1.0 0.00 0.00 0.00 72 1012.4
20260504041223 42 249 0.0 1.0 0.00 0.00 0.00 71 1012.3
20260504041122 42 249 0.0 1.0 0.00 0.00 0.00 72 1012.4
20260504041035 42 249 0.0 1.0 0.00 0.00 0.00 72 1012.3
20260504040821 42 249 0.0 1.0 0.00 0.00 0.00 71 1012.3
20260504040734 42 249 0.0 1.0 0.00 0.00 0.00 72 1012.3
20260504040546 42 249 0.0 1.0 0.00 0.00 0.00 72 1012.3
20260504040214 42 249 0.0 0.0 0.00 0.00 0.00 72 1012.2
20260504040114 42 249 0.0 0.0 0.00 0.00 0.00 72 1012.2
20260504040015 42 249 0.0 0.0 0.00 0.00 0.00 72 1012.2
20260504035912 42 249 0.0 0.0 0.00 0.00 0.00 72 1012.2
20260504035815 42 249 0.0 0.0 0.00 0.00 0.00 72 1012.1
20260504035710 42 249 0.0 0.0 0.00 0.00 0.00 72 1012.2
20260504035612 42 249 0.0 0.0 0.00 0.00 0.00 72 1012.2
20260504035510 42 249 0.0 0.0 0.00 0.00 0.00 72 1012.1
20260504035410 42 249 0.0 0.0 0.00 0.00 0.00 72 1012.1
20260504035306 42 249 0.0 0.0 0.00 0.00 0.00 72 1012.1
20260504035206 42 249 0.0 0.0 0.00 0.00 0.00 71 1012.1
20260504035120 42 249 0.0 0.0 0.00 0.00 0.00 71 1012.1
20260504034905 42 249 0.0 0.0 0.00 0.00 0.00 71 1012.2
20260504034806 43 249 0.0 0.0 0.00 0.00 0.00 71 1012.2
20260504034702 42 249 0.0 0.0 0.00 0.00 0.00 71 1012.2
20260504034618 43 249 0.0 0.0 0.00 0.00 0.00 71 1012.2
20260504034400 43 249 0.0 0.0 0.00 0.00 0.00 72 1012.2
20260504034301 43 249 0.0 0.0 0.00 0.00 0.00 72 1012.2
20260504034200 43 249 0.0 0.0 0.00 0.00 0.00 72 1012.2
20260504034059 43 249 0.0 0.0 0.00 0.00 0.00 72 1012.2
20260504033959 43 249 0.0 0.0 0.00 0.00 0.00 71 1012.2
20260504033858 43 249 0.0 0.0 0.00 0.00 0.00 71 1012.2
20260504033754 43 249 0.0 0.0 0.00 0.00 0.00 71 1012.3
20260504033711 43 249 0.0 0.0 0.00 0.00 0.00 71 1012.2
20260504033455 43 249 0.0 0.0 0.00 0.00 0.00 71 1012.2
20260504033423 43 249 0.0 0.0 0.00 0.00 0.00 71 1012.2
20260504033052 43 249 0.0 0.0 0.00 0.00 0.00 71 1012.2
20260504032951 43 249 0.0 0.0 0.00 0.00 0.00 71 1012.2
20260504032850 43 249 0.0 0.0 0.00 0.00 0.00 71 1012.2
20260504032749 43 249 0.0 0.0 0.00 0.00 0.00 71 1012.1
20260504032702 43 249 0.0 0.0 0.00 0.00 0.00 71 1012.2
20260504032501 43 249 0.0 0.0 0.00 0.00 0.00 71 1012.2
20260504032245 43 249 0.0 0.0 0.00 0.00 0.00 70 1012.2
20260504032142 43 249 0.0 0.0 0.00 0.00 0.00 70 1012.2
20260504032044 43 249 0.0 0.0 0.00 0.00 0.00 70 1012.2
20260504031942 43 249 0.0 0.0 0.00 0.00 0.00 70 1012.1
20260504031842 43 249 0.0 0.0 0.00 0.00 0.00 70 1012.1
20260504031742 43 249 0.0 0.0 0.00 0.00 0.00 70 1012.1
20260504031639 43 249 0.0 0.0 0.00 0.00 0.00 69 1012.1
20260504031539 43 249 0.0 0.0 0.00 0.00 0.00 69 1012.1
20260504031440 43 249 0.0 0.0 0.00 0.00 0.00 69 1012.1
20260504031338 43 249 0.0 0.0 0.00 0.00 0.00 69 1012.1
20260504031239 44 249 0.0 0.0 0.00 0.00 0.00 69 1012.1
20260504031134 44 249 0.0 0.0 0.00 0.00 0.00 69 1012.1
20260504031036 44 249 0.0 0.0 0.00 0.00 0.00 69 1012.1
20260504030933 44 249 0.0 0.0 0.00 0.00 0.00 69 1012.1
20260504030850 44 249 0.0 0.0 0.00 0.00 0.00 69 1012.1
20260504030630 44 249 0.0 0.0 0.00 0.00 0.00 68 1012.1
20260504030531 44 249 0.0 0.0 0.00 0.00 0.00 68 1012.1
20260504030430 44 249 0.0 0.0 0.00 0.00 0.00 68 1012.1
20260504030330 44 249 0.0 0.0 0.00 0.00 0.00 68 1012.0
20260504030227 44 249 0.0 0.0 0.00 0.00 0.00 68 1012.1
20260504030127 44 249 0.0 0.0 0.00 0.00 0.00 68 1012.1
20260504030027 44 249 0.0 0.0 0.00 0.00 0.00 68 1012.0
20260504025954 44 249 0.0 0.0 0.00 0.00 0.00 67 1012.1
20260504025639 44 249 0.0 0.0 0.00 0.00 0.00 68 1012.1
20260504025423 44 249 0.0 0.0 0.00 0.00 0.00 68 1012.1
20260504025321 44 249 0.0 0.0 0.00 0.00 0.00 68 1012.1
20260504025222 44 249 0.0 0.0 0.00 0.00 0.00 68 1012.1
20260504025119 44 249 0.0 0.0 0.00 0.00 0.00 67 1012.1
20260504025019 44 249 0.0 0.0 0.00 0.00 0.00 68 1012.1
20260504024917 44 249 0.0 0.0 0.00 0.00 0.00 68 1012.1
20260504024816 44 249 0.0 0.0 0.00 0.00 0.00 67 1012.1
20260504024716 44 249 0.0 0.0 0.00 0.00 0.00 67 1012.1
20260504024614 44 249 0.0 0.0 0.00 0.00 0.00 67 1012.0
20260504024515 44 249 0.0 0.0 0.00 0.00 0.00 67 1012.1
20260504024414 44 249 0.0 0.0 0.00 0.00 0.00 67 1012.1
20260504024328 44 249 0.0 0.0 0.00 0.00 0.00 67 1012.0
20260504024112 44 249 0.0 0.0 0.00 0.00 0.00 67 1012.1
20260504024010 44 249 0.0 0.0 0.00 0.00 0.00 66 1012.0
20260504023911 44 249 0.0 0.0 0.00 0.00 0.00 66 1012.0
20260504023808 44 249 0.0 0.0 0.00 0.00 0.00 66 1012.1
20260504023723 45 249 0.0 0.0 0.00 0.00 0.00 66 1012.0
20260504023523 45 249 0.0 0.0 0.00 0.00 0.00 66 1012.0
20260504023304 45 249 0.0 0.0 0.00 0.00 0.00 67 1012.1
20260504023204 45 249 0.0 0.0 0.00 0.00 0.00 67 1012.1
20260504023102 45 249 0.0 0.0 0.00 0.00 0.00 67 1012.1
20260504023005 45 249 0.0 0.0 0.00 0.00 0.00 67 1012.1
20260504022934 45 249 0.0 0.0 0.00 0.00 0.00 66 1012.1
20260504022604 45 249 0.0 0.0 0.00 0.00 0.00 67 1012.1
20260504022502 45 249 0.0 0.0 0.00 0.00 0.00 67 1012.1
20260504022401 45 249 0.0 0.0 0.00 0.00 0.00 66 1012.1
20260504022317 45 249 0.0 0.0 0.00 0.00 0.00 67 1012.2
20260504022059 45 249 0.0 0.0 0.00 0.00 0.00 66 1012.2
20260504021958 46 249 0.0 0.0 0.00 0.00 0.00 66 1012.2
20260504021859 46 249 0.0 1.0 0.00 0.00 0.00 66 1012.2
20260504021757 46 249 0.0 1.0 0.00 0.00 0.00 66 1012.1
20260504021709 46 249 0.0 1.0 0.00 0.00 0.00 66 1012.2
20260504021454 46 249 0.0 2.0 0.00 0.00 0.00 65 1012.2
20260504021354 46 249 0.0 2.0 0.00 0.00 0.00 65 1012.2
20260504021252 46 249 0.0 2.0 0.00 0.00 0.00 65 1012.2
20260504021206 46 249 0.0 2.0 0.00 0.00 0.00 65 1012.2
20260504020951 46 249 0.0 2.0 0.00 0.00 0.00 64 1012.1
20260504020850 46 249 0.0 2.0 0.00 0.00 0.00 64 1012.1
20260504020750 46 249 0.0 2.0 0.00 0.00 0.00 64 1012.1
20260504020651 46 249 0.0 2.0 0.00 0.00 0.00 64 1012.1
20260504020550 46 249 0.0 0.0 0.00 0.00 0.00 64 1012.1
20260504020450 46 249 0.0 0.0 0.00 0.00 0.00 63 1012.1
20260504020346 46 249 0.0 0.0 0.00 0.00 0.00 64 1012.2
20260504020247 46 249 0.0 0.0 0.00 0.00 0.00 63 1012.2
20260504020147 46 249 0.0 0.0 0.00 0.00 0.00 63 1012.1
20260504020045 46 249 0.0 0.0 0.00 0.00 0.00 63 1012.2
20260504015945 46 249 0.0 0.0 0.00 0.00 0.00 63 1012.1
20260504015843 46 249 0.0 0.0 0.00 0.00 0.00 62 1012.1
20260504015743 47 249 0.0 0.0 0.00 0.00 0.00 62 1012.1
20260504015643 47 249 0.0 0.0 0.00 0.00 0.00 62 1012.1
20260504015541 47 249 0.0 0.0 0.00 0.00 0.00 62 1012.1
20260504015443 47 249 0.0 0.0 0.00 0.00 0.00 62 1012.1
20260504015340 47 249 0.0 0.0 0.00 0.00 0.00 62 1012.1
20260504015241 47 249 0.0 0.0 0.00 0.00 0.00 62 1012.1
20260504015139 47 249 0.0 1.0 0.00 0.00 0.00 62 1012.1
20260504015037 47 249 0.0 1.0 0.00 0.00 0.00 62 1012.1
20260504014938 47 249 0.0 1.0 0.00 0.00 0.00 62 1012.1
20260504014850 47 249 0.0 2.0 0.00 0.00 0.00 62 1012.1
20260504014634 47 249 0.0 2.0 0.00 0.00 0.00 62 1012.1
20260504014533 47 249 0.0 2.0 0.00 0.00 0.00 62 1012.1
20260504014432 47 249 0.0 2.0 0.00 0.00 0.00 63 1012.1
20260504014328 47 249 0.0 2.0 0.00 0.00 0.00 63 1012.1
20260504014228 48 249 0.0 2.0 0.00 0.00 0.00 63 1012.0
20260504014142 48 249 0.0 2.0 0.00 0.00 0.00 63 1012.0
20260504013925 48 249 0.0 2.0 0.00 0.00 0.00 62 1012.0
20260504013826 48 249 0.0 2.0 0.00 0.00 0.00 62 1012.0
20260504013724 48 249 0.0 0.0 0.00 0.00 0.00 61 1012.0
20260504013625 48 249 0.0 0.0 0.00 0.00 0.00 61 1011.9
20260504013523 48 249 0.0 0.0 0.00 0.00 0.00 61 1011.9
20260504013424 48 249 0.0 0.0 0.00 0.00 0.00 60 1011.9
20260504013321 49 249 0.0 0.0 0.00 0.00 0.00 60 1011.9
20260504013234 49 249 0.0 0.0 0.00 0.00 0.00 60 1011.9
20260504013018 49 249 0.0 0.0 0.00 0.00 0.00 59 1011.9
20260504012919 49 249 0.0 0.0 0.00 0.00 0.00 59 1011.9
20260504012817 49 249 0.0 0.0 0.00 0.00 0.00 59 1011.9
20260504012716 49 249 0.0 0.0 0.00 0.00 0.00 59 1011.8
20260504012619 49 249 0.0 0.0 0.00 0.00 0.00 58 1011.9
20260504012514 49 249 0.0 0.0 0.00 0.00 0.00 58 1011.8
20260504012429 49 249 0.0 0.0 0.00 0.00 0.00 58 1011.9
20260504012215 49 249 0.0 0.0 0.00 0.00 0.00 57 1011.9
20260504012113 50 249 0.0 0.0 0.00 0.00 0.00 57 1011.8
20260504012011 50 249 0.0 0.0 0.00 0.00 0.00 56 1011.8
20260504011908 50 249 0.0 0.0 0.00 0.00 0.00 56 1011.8
20260504011810 50 249 0.0 0.0 0.00 0.00 0.00 55 1011.8
20260504011708 50 249 0.0 0.0 0.00 0.00 0.00 55 1011.8
20260504011610 50 249 0.0 0.0 0.00 0.00 0.00 55 1011.8
20260504011552 50 249 0.0 0.0 0.00 0.00 0.00 55 1011.8
20260504011205 51 249 0.0 0.0 0.00 0.00 0.00 53 1011.7
20260504011118 51 249 0.0 0.0 0.00 0.00 0.00 53 1011.7
20260504010901 51 249 0.0 0.0 0.00 0.00 0.00 53 1011.7
20260504010802 51 249 0.0 0.0 0.00 0.00 0.00 53 1011.7
20260504010700 51 249 0.0 0.0 0.00 0.00 0.00 53 1011.6
20260504010615 51 249 0.0 0.0 0.00 0.00 0.00 52 1011.6
20260504010400 51 249 0.0 0.0 0.00 0.00 0.00 52 1011.6
20260504010300 51 249 0.0 0.0 0.00 0.00 0.00 52 1011.6
20260504010200 51 249 0.0 0.0 0.00 0.00 0.00 51 1011.6
20260504010101 52 249 0.0 0.0 0.00 0.00 0.00 51 1011.6
20260504010002 52 249 0.0 0.0 0.00 0.00 0.00 50 1011.6
20260504005901 52 249 0.0 0.0 0.00 0.00 0.00 49 1011.5
20260504005817 52 249 0.0 0.0 0.00 0.00 0.00 49 1011.5
20260504005615 52 249 0.0 0.0 0.00 0.00 0.00 49 1011.4
20260504005411 52 249 0.0 0.0 0.00 0.00 0.00 48 1011.4
20260504005158 53 249 0.0 0.0 0.00 0.00 0.00 47 1011.4
20260504005109 53 249 0.0 0.0 0.00 0.00 0.00 47 1011.4
20260504004856 53 249 0.0 0.0 0.00 0.00 0.00 47 1011.4
20260504004752 53 249 0.0 0.0 0.00 0.00 0.00 46 1011.4
20260504004653 53 249 0.0 0.0 0.00 0.00 0.00 46 1011.4
20260504004552 53 249 0.0 0.0 0.00 0.00 0.00 46 1011.4
20260504004510 53 249 0.0 0.0 0.00 0.00 0.00 45 1011.4
20260504004251 54 249 0.0 0.0 0.00 0.00 0.00 45 1011.4
20260504004150 54 249 0.0 0.0 0.00 0.00 0.00 44 1011.3
20260504004050 54 249 0.0 0.0 0.00 0.00 0.00 44 1011.4
20260504003949 54 249 0.0 0.0 0.00 0.00 0.00 44 1011.3
20260504003850 54 249 0.0 0.0 0.00 0.00 0.00 43 1011.3
20260504003748 54 249 0.0 0.0 0.00 0.00 0.00 43 1011.3
20260504003651 54 249 0.0 0.0 0.00 0.00 0.00 42 1011.3
20260504003549 54 249 0.0 0.0 0.00 0.00 0.00 42 1011.3
20260504003450 55 249 0.0 0.0 0.00 0.00 0.00 42 1011.3
20260504003346 55 249 0.0 0.0 0.00 0.00 0.00 41 1011.2
20260504003248 55 249 0.0 0.0 0.00 0.00 0.00 41 1011.2
20260504003144 55 249 0.0 0.0 0.00 0.00 0.00 41 1011.2
20260504003046 55 249 0.0 0.0 0.00 0.00 0.00 40 1011.2
20260504002945 55 249 0.0 0.0 0.00 0.00 0.00 41 1011.2
20260504002844 55 249 0.0 0.0 0.00 0.00 0.00 40 1011.1
20260504002743 55 249 0.0 0.0 0.00 0.00 0.00 40 1011.1
20260504002658 55 249 0.0 1.0 0.00 0.00 0.00 40 1011.1
20260504002443 56 249 0.0 1.0 0.00 0.00 0.00 40 1011.1
20260504002343 56 249 0.0 2.0 0.00 0.00 0.00 40 1011.1
20260504002242 56 249 0.0 2.0 0.00 0.00 0.00 40 1011.1
20260504002143 56 249 0.0 2.0 0.00 0.00 0.00 40 1011.1
20260504002040 56 249 0.0 2.0 0.00 0.00 0.00 40 1011.1
20260504001940 56 249 0.0 2.0 0.00 0.00 0.00 40 1011.1
20260504001840 56 249 0.0 2.0 0.00 0.00 0.00 40 1011.0
20260504001740 56 249 0.0 2.0 0.00 0.00 0.00 40 1011.0
20260504001639 56 249 0.0 2.0 0.00 0.00 0.00 39 1011.0
20260504001553 56 249 0.0 2.0 0.00 0.00 0.00 39 1011.0
20260504001337 56 249 0.0 2.0 0.00 0.00 0.00 39 1011.0
20260504001236 56 249 0.0 2.0 0.00 0.00 0.00 39 1011.0
20260504001152 57 249 1.0 2.0 0.00 0.00 0.00 39 1010.9
20260504000933 57 249 1.0 3.0 0.00 0.00 0.00 38 1010.9
20260504000833 57 249 1.0 3.0 0.00 0.00 0.00 38 1010.9
20260504000734 57 249 1.0 3.0 0.00 0.00 0.00 37 1010.9
20260504000633 57 249 1.0 3.0 0.00 0.00 0.00 38 1010.9
20260504000547 57 249 1.0 3.0 0.00 0.00 0.00 37 1010.9
20260504000346 57 249 1.0 3.0 0.00 0.00 0.00 37 1010.8
20260504000130 57 249 1.0 3.0 0.00 0.00 0.00 37 1010.8
20260504000031 57 249 1.0 6.0 0.00 0.00 0.00 37 1010.8
20260503235945 57 249 1.0 6.0 0.00 0.00 0.00 37 1010.8
20260503235746 57 249 1.0 6.0 0.00 0.00 0.00 37 1010.8
20260503235529 57 249 1.0 6.0 0.00 0.00 0.00 36 1010.7
20260503235427 57 249 1.0 6.0 0.00 0.00 0.00 36 1010.7
20260503235328 57 249 2.0 6.0 0.00 0.00 0.00 37 1010.7
20260503235228 58 249 2.0 6.0 0.00 0.00 0.00 36 1010.7
20260503235127 58 249 2.0 6.0 0.00 0.00 0.00 36 1010.7
20260503235025 58 254 1.0 5.0 0.00 0.00 0.00 37 1010.7
20260503234925 58 248 2.0 4.0 0.00 0.00 0.00 36 1010.7
20260503234826 58 248 1.0 4.0 0.00 0.00 0.00 36 1010.6
20260503234725 58 250 2.0 4.0 0.00 0.00 0.00 36 1010.6
20260503234640 58 250 2.0 4.0 0.00 0.00 0.00 36 1010.6
20260503234424 58 249 2.0 4.0 0.00 0.00 0.00 36 1010.6
20260503234323 58 242 2.0 4.0 0.00 0.00 0.00 37 1010.5
20260503234223 58 242 2.0 6.0 0.00 0.00 0.00 36 1010.5
20260503234123 58 242 2.0 6.0 0.00 0.00 0.00 36 1010.5
20260503234037 58 242 2.0 6.0 0.00 0.00 0.00 36 1010.5
20260503233824 58 240 2.0 8.0 0.00 0.00 0.00 36 1010.5
20260503233723 58 240 2.0 8.0 0.00 0.00 0.00 36 1010.5
20260503233637 58 240 2.0 8.0 0.00 0.00 0.00 35 1010.5
20260503233424 58 240 2.0 8.0 0.00 0.00 0.00 35 1010.5
20260503233322 58 240 2.0 8.0 0.00 0.00 0.00 35 1010.5
20260503233224 58 271 2.0 8.0 0.00 0.00 0.00 35 1010.4
20260503233122 58 271 1.0 8.0 0.00 0.00 0.00 35 1010.4
20260503233041 58 274 1.0 8.0 0.00 0.00 0.00 34 1010.4
20260503232823 58 249 1.0 2.0 0.00 0.00 0.00 36 1010.4
20260503232724 59 249 1.0 2.0 0.00 0.00 0.00 36 1010.4
20260503232639 59 249 1.0 2.0 0.00 0.00 0.00 37 1010.4
20260503232454 59 249 1.0 4.0 0.00 0.00 0.00 35 1010.3
20260503232139 59 249 0.0 4.0 0.00 0.00 0.00 36 1010.3
20260503231922 59 249 0.0 4.0 0.00 0.00 0.00 35 1010.3
20260503231839 59 249 0.0 4.0 0.00 0.00 0.00 34 1010.4
20260503231622 59 249 0.0 4.0 0.00 0.00 0.00 35 1010.4
20260503231524 59 285 0.0 4.0 0.00 0.00 0.00 35 1010.4
20260503231422 59 285 1.0 4.0 0.00 0.00 0.00 36 1010.3
20260503231323 59 286 1.0 4.0 0.00 0.00 0.00 36 1010.4
20260503231222 59 286 1.0 4.0 0.00 0.00 0.00 35 1010.3
20260503231122 59 286 1.0 4.0 0.00 0.00 0.00 36 1010.3
20260503231024 59 286 1.0 4.0 0.00 0.00 0.00 34 1010.3
20260503230924 59 286 1.0 4.0 0.00 0.00 0.00 34 1010.2
20260503230824 59 286 2.0 5.0 0.00 0.00 0.00 34 1010.3
20260503230724 59 286 2.0 5.0 0.00 0.00 0.00 34 1010.3
20260503230623 59 286 2.0 7.0 0.00 0.00 0.00 33 1010.2
20260503230523 59 279 2.0 7.0 0.00 0.00 0.00 34 1010.2
20260503230424 59 242 2.0 7.0 0.00 0.00 0.00 33 1010.3
20260503230324 59 242 2.0 7.0 0.00 0.00 0.00 33 1010.3
20260503230223 59 242 2.0 7.0 0.00 0.00 0.00 33 1010.3
20260503230139 60 242 2.0 7.0 0.00 0.00 0.00 33 1010.3
20260503225922 59 239 2.0 7.0 0.00 0.00 0.00 33 1010.2
20260503225825 59 247 2.0 7.0 0.00 0.00 0.00 33 1010.2
20260503225809 59 257 2.0 7.0 0.00 0.00 0.00 33 1010.2
20260503225322 59 245 2.0 9.0 0.00 0.00 0.00 33 1010.2
20260503225255 59 245 2.0 9.0 0.00 0.00 0.00 33 1010.2
20260503224938 59 246 3.0 9.0 0.00 0.00 0.00 33 1010.2
20260503224740 59 318 3.0 9.0 0.00 0.00 0.00 33 1010.2
20260503224523 59 317 3.0 11.0 0.00 0.00 0.00 32 1010.2
20260503224423 59 272 3.0 11.0 0.00 0.00 0.00 33 1010.2
20260503224325 59 244 3.0 11.0 0.00 0.00 0.00 32 1010.1
20260503224224 60 263 3.0 11.0 0.00 0.00 0.00 32 1010.1
20260503224139 60 269 4.0 11.0 0.00 0.00 0.00 32 1010.1
20260503223922 60 285 4.0 12.0 0.00 0.00 0.00 34 1010.0
20260503223824 60 328 4.0 12.0 0.00 0.00 0.00 33 1010.0
20260503223722 60 270 4.0 12.0 0.00 0.00 0.00 32 1010.1
20260503223623 60 323 4.0 12.0 0.00 0.00 0.00 33 1010.1
20260503223522 60 268 4.0 12.0 0.00 0.00 0.00 32 1010.0
20260503223455 60 329 4.0 12.0 0.00 0.00 0.00 32 1010.1
20260503223124 60 251 4.0 12.0 0.00 0.00 0.00 33 1009.9
20260503223024 60 252 5.0 12.0 0.00 0.00 0.00 31 1010.0
20260503222924 60 246 4.0 12.0 0.00 0.00 0.00 31 1010.0
20260503222824 60 265 4.0 11.0 0.00 0.00 0.00 32 1010.0
20260503222722 60 246 4.0 11.0 0.00 0.00 0.00 32 1010.1
20260503222624 60 302 4.0 11.0 0.00 0.00 0.00 32 1010.0
20260503222525 60 272 4.0 11.0 0.00 0.00 0.00 32 1010.0
20260503222440 60 253 4.0 11.0 0.00 0.00 0.00 31 1010.0
20260503222224 60 246 3.0 12.0 0.00 0.00 0.00 32 1010.1
20260503222122 60 326 4.0 12.0 0.00 0.00 0.00 31 1010.1
20260503222023 60 304 4.0 12.0 0.00 0.00 0.00 33 1010.0
20260503221923 60 275 4.0 12.0 0.00 0.00 0.00 32 1010.1
20260503221823 60 261 3.0 12.0 0.00 0.00 0.00 32 1010.1
20260503221722 60 239 3.0 12.0 0.00 0.00 0.00 31 1010.1
20260503221639 61 271 3.0 12.0 0.00 0.00 0.00 31 1010.1
20260503221439 61 273 3.0 12.0 0.00 0.00 0.00 31 1010.0
20260503221222 61 28 2.0 10.0 0.00 0.00 0.00 30 1010.0
20260503221123 61 325 2.0 6.0 0.00 0.00 0.00 32 1010.0
20260503221023 61 241 2.0 7.0 0.00 0.00 0.00 31 1010.0
20260503220954 61 240 2.0 8.0 0.00 0.00 0.00 32 1010.0
20260503220638 61 264 2.0 8.0 0.00 0.00 0.00 33 1010.0
20260503220425 61 244 2.0 8.0 0.00 0.00 0.00 32 1010.0
20260503220323 61 244 3.0 10.0 0.00 0.00 0.00 33 1009.9
20260503220222 61 244 3.0 10.0 0.00 0.00 0.00 31 1010.0
20260503220123 61 230 3.0 10.0 0.00 0.00 0.00 30 1010.0
20260503220023 61 236 3.0 10.0 0.00 0.00 0.00 32 1010.0
20260503215923 61 265 3.0 10.0 0.00 0.00 0.00 31 1010.0
20260503215823 61 265 3.0 10.0 0.00 0.00 0.00 32 1010.0
20260503215724 61 265 3.0 10.0 0.00 0.00 0.00 32 1010.0
20260503215624 61 327 3.0 10.0 0.00 0.00 0.00 32 1010.0
20260503215523 61 306 3.0 10.0 0.00 0.00 0.00 32 1010.0
20260503215424 61 306 3.0 15.0 0.00 0.00 0.00 31 1010.0
20260503215323 60 327 3.0 15.0 0.00 0.00 0.00 31 1010.0
20260503215224 60 321 4.0 15.0 0.00 0.00 0.00 31 1010.0
20260503215123 60 254 4.0 15.0 0.00 0.00 0.00 31 1010.0
20260503215024 60 307 4.0 15.0 0.00 0.00 0.00 31 1010.0
20260503214922 60 273 4.0 15.0 0.00 0.00 0.00 32 1010.0
20260503214822 60 311 4.0 15.0 0.00 0.00 0.00 32 1010.0
20260503214724 60 346 4.0 15.0 0.00 0.00 0.00 31 1010.1
20260503214624 60 227 5.0 15.0 0.00 0.00 0.00 30 1010.0
20260503214523 60 247 5.0 15.0 0.00 0.00 0.00 31 1010.0
20260503214424 60 240 4.0 14.0 0.00 0.00 0.00 31 1010.0
20260503214323 60 254 4.0 14.0 0.00 0.00 0.00 31 1010.0
20260503214240 60 265 4.0 14.0 0.00 0.00 0.00 32 1010.1
20260503214023 60 283 4.0 14.0 0.00 0.00 0.00 31 1010.1
20260503213924 60 277 4.0 14.0 0.00 0.00 0.00 31 1010.1
20260503213839 60 334 3.0 14.0 0.00 0.00 0.00 32 1010.1
20260503213623 60 242 3.0 14.0 0.00 0.00 0.00 31 1010.1
20260503213539 60 277 3.0 12.0 0.00 0.00 0.00 32 1010.0
20260503213322 60 242 4.0 14.0 0.00 0.00 0.00 32 1010.0
20260503213222 60 238 4.0 14.0 0.00 0.00 0.00 31 1010.0
20260503213120 60 239 4.0 14.0 0.00 0.00 0.00 32 1010.1
20260503213021 60 250 4.0 14.0 0.00 0.00 0.00 32 1010.1
20260503212920 60 237 4.0 14.0 0.00 0.00 0.00 32 1010.0
20260503212820 60 319 4.0 14.0 0.00 0.00 0.00 32 1010.1
20260503212718 60 248 5.0 14.0 0.00 0.00 0.00 31 1010.0
20260503212619 60 256 5.0 14.0 0.00 0.00 0.00 32 1010.0
20260503212533 60 262 5.0 14.0 0.00 0.00 0.00 31 1010.1
20260503212318 60 253 5.0 11.0 0.00 0.00 0.00 32 1010.1
20260503212215 60 260 5.0 13.0 0.00 0.00 0.00 32 1010.1
20260503212149 60 299 5.0 13.0 0.00 0.00 0.00 31 1009.9
20260503211816 60 341 4.0 13.0 0.00 0.00 0.00 32 1010.0
20260503211730 60 246 4.0 13.0 0.00 0.00 0.00 32 1010.1
20260503211512 59 323 4.0 13.0 0.00 0.00 0.00 32 1010.0
20260503211427 60 287 4.0 13.0 0.00 0.00 0.00 32 1010.1
20260503211209 59 260 4.0 14.0 0.00 0.00 0.00 32 1010.2
20260503211109 59 238 4.0 14.0 0.00 0.00 0.00 33 1010.0
20260503211010 59 319 5.0 14.0 0.00 0.00 0.00 33 1010.1
20260503210910 59 277 5.0 14.0 0.00 0.00 0.00 32 1010.0
20260503210810 59 238 5.0 14.0 0.00 0.00 0.00 32 1010.0
20260503210724 59 244 5.0 14.0 0.00 0.00 0.00 32 1010.1
20260503210507 59 157 5.0 14.0 0.00 0.00 0.00 32 1010.1
20260503210407 59 305 5.0 14.0 0.00 0.00 0.00 31 1009.9
20260503210307 59 275 5.0 14.0 0.00 0.00 0.00 32 1010.0
20260503210205 59 5 6.0 14.0 0.00 0.00 0.00 32 1010.0
20260503210104 59 250 6.0 14.0 0.00 0.00 0.00 32 1010.0
20260503210006 59 248 5.0 14.0 0.00 0.00 0.00 31 1010.0
20260503205905 59 250 6.0 14.0 0.00 0.00 0.00 32 1010.1
20260503205805 59 271 6.0 14.0 0.00 0.00 0.00 32 1010.1
20260503205703 59 258 6.0 14.0 0.00 0.00 0.00 31 1010.0
20260503205604 59 259 6.0 14.0 0.00 0.00 0.00 32 1010.1
20260503205504 59 254 6.0 14.0 0.00 0.00 0.00 32 1010.1
20260503205405 59 5 5.0 14.0 0.00 0.00 0.00 31 1010.0
20260503205304 59 251 5.0 14.0 0.00 0.00 0.00 31 1010.1
20260503205204 59 238 5.0 14.0 0.00 0.00 0.00 32 1010.1
20260503205120 59 263 5.0 14.0 0.00 0.00 0.00 32 1010.1
20260503204904 59 239 4.0 12.0 0.00 0.00 0.00 32 1010.1
20260503204804 59 268 4.0 12.0 0.00 0.00 0.00 32 1010.1
20260503204704 59 278 4.0 12.0 0.00 0.00 0.00 32 1010.0
20260503204605 59 243 4.0 12.0 0.00 0.00 0.00 33 1010.0
20260503204505 59 268 4.0 12.0 0.00 0.00 0.00 32 1010.0
20260503204418 59 258 4.0 12.0 0.00 0.00 0.00 32 1009.9
20260503204158 59 227 4.0 13.0 0.00 0.00 0.00 34 1010.1
20260503204058 59 338 4.0 13.0 0.00 0.00 0.00 33 1010.0
20260503203958 58 271 4.0 13.0 0.00 0.00 0.00 32 1010.0
20260503203858 58 270 4.0 13.0 0.00 0.00 0.00 33 1010.1
20260503203813 58 267 4.0 13.0 0.00 0.00 0.00 33 1010.1
20260503203556 58 283 4.0 13.0 0.00 0.00 0.00 32 1010.1
20260503203512 58 277 4.0 13.0 0.00 0.00 0.00 31 1010.1
20260503203253 58 238 4.0 13.0 0.00 0.00 0.00 33 1010.1
20260503203209 58 264 4.0 13.0 0.00 0.00 0.00 33 1010.1
20260503202953 59 258 4.0 13.0 0.00 0.00 0.00 32 1010.2
20260503202853 59 294 4.0 13.0 0.00 0.00 0.00 33 1010.1
20260503202752 59 333 4.0 13.0 0.00 0.00 0.00 34 1010.2
20260503202650 58 293 4.0 13.0 0.00 0.00 0.00 33 1010.1
20260503202550 58 289 5.0 13.0 0.00 0.00 0.00 33 1010.1
20260503202450 58 240 5.0 13.0 0.00 0.00 0.00 32 1010.2
20260503202351 58 251 5.0 17.0 0.00 0.00 0.00 33 1010.1
20260503202249 59 280 5.0 17.0 0.00 0.00 0.00 33 1010.2
20260503202207 58 250 5.0 17.0 0.00 0.00 0.00 33 1010.2
20260503201949 58 275 5.0 18.0 0.00 0.00 0.00 33 1010.2
20260503201848 58 231 5.0 18.0 0.00 0.00 0.00 33 1010.2
20260503201804 58 223 5.0 18.0 0.00 0.00 0.00 33 1010.2
20260503201549 58 244 6.0 18.0 0.00 0.00 0.00 32 1010.2
20260503201445 58 250 6.0 18.0 0.00 0.00 0.00 33 1010.3
20260503201400 58 260 6.0 18.0 0.00 0.00 0.00 32 1010.2
20260503201143 58 282 5.0 18.0 0.00 0.00 0.00 32 1010.4
20260503201059 58 322 5.0 12.0 0.00 0.00 0.00 31 1010.4
20260503200840 59 240 5.0 12.0 0.00 0.00 0.00 34 1010.3
20260503200738 59 287 5.0 12.0 0.00 0.00 0.00 32 1010.4
20260503200639 59 256 5.0 10.0 0.00 0.00 0.00 32 1010.3
20260503200537 59 267 5.0 10.0 0.00 0.00 0.00 33 1010.5
20260503200440 59 273 5.0 10.0 0.00 0.00 0.00 33 1010.4
20260503200336 59 257 4.0 10.0 0.00 0.00 0.00 35 1010.4
20260503200236 59 323 4.0 10.0 0.00 0.00 0.00 36 1010.4
20260503200136 58 251 4.0 10.0 0.00 0.00 0.00 35 1010.4
20260503200036 58 233 4.0 12.0 0.00 0.00 0.00 35 1010.3
20260503195935 58 329 4.0 12.0 0.00 0.00 0.00 35 1010.3
20260503195836 58 260 4.0 12.0 0.00 0.00 0.00 34 1010.4
20260503195737 58 258 4.0 12.0 0.00 0.00 0.00 34 1010.4
20260503195708 58 261 4.0 12.0 0.00 0.00 0.00 35 1010.5
20260503195419 57 292 5.0 12.0 0.00 0.00 0.00 34 1010.4
20260503194931 57 240 5.0 13.0 0.00 0.00 0.00 35 1010.5
20260503194829 57 284 5.0 13.0 0.00 0.00 0.00 35 1010.5
20260503194730 57 304 5.0 13.0 0.00 0.00 0.00 34 1010.5
20260503194630 57 355 5.0 13.0 0.00 0.00 0.00 34 1010.5
20260503194530 57 250 5.0 13.0 0.00 0.00 0.00 34 1010.5
20260503194429 57 229 5.0 13.0 0.00 0.00 0.00 34 1010.5
20260503194331 57 236 5.0 13.0 0.00 0.00 0.00 34 1010.5
20260503194230 57 253 5.0 13.0 0.00 0.00 0.00 35 1010.5
20260503194131 57 230 5.0 11.0 0.00 0.00 0.00 36 1010.5
20260503194045 57 264 5.0 11.0 0.00 0.00 0.00 36 1010.6
20260503193829 56 256 5.0 11.0 0.00 0.00 0.00 35 1010.5
20260503193729 57 302 5.0 11.0 0.00 0.00 0.00 35 1010.5
20260503193627 57 243 5.0 12.0 0.00 0.00 0.00 35 1010.4
20260503193528 57 250 5.0 12.0 0.00 0.00 0.00 34 1010.4
20260503193427 57 321 5.0 12.0 0.00 0.00 0.00 34 1010.5
20260503193327 57 235 4.0 12.0 0.00 0.00 0.00 34 1010.6
20260503193227 57 243 4.0 12.0 0.00 0.00 0.00 35 1010.5
20260503193128 57 309 4.0 12.0 0.00 0.00 0.00 35 1010.5
20260503193025 57 271 4.0 14.0 0.00 0.00 0.00 35 1010.6
20260503192939 57 228 4.0 14.0 0.00 0.00 0.00 35 1010.6
20260503192723 57 258 5.0 14.0 0.00 0.00 0.00 37 1010.6
20260503192624 57 237 4.0 14.0 0.00 0.00 0.00 35 1010.6
20260503192524 57 232 4.0 14.0 0.00 0.00 0.00 36 1010.7
20260503192442 57 270 4.0 14.0 0.00 0.00 0.00 37 1010.7
20260503192239 57 242 5.0 14.0 0.00 0.00 0.00 36 1010.7
20260503192023 57 348 5.0 13.0 0.00 0.00 0.00 35 1010.7
20260503191923 56 240 4.0 13.0 0.00 0.00 0.00 35 1010.7
20260503191824 56 294 4.0 13.0 0.00 0.00 0.00 38 1010.7
20260503191722 56 278 4.0 13.0 0.00 0.00 0.00 36 1010.7
20260503191619 56 279 4.0 13.0 0.00 0.00 0.00 35 1010.8
20260503191535 56 285 4.0 13.0 0.00 0.00 0.00 36 1010.8
20260503191318 56 5 3.0 11.0 0.00 0.00 0.00 39 1010.9
20260503191219 56 17 3.0 10.0 0.00 0.00 0.00 36 1010.8
20260503191117 56 336 3.0 11.0 0.00 0.00 0.00 37 1010.7
20260503191019 56 238 3.0 11.0 0.00 0.00 0.00 36 1010.8
20260503190918 56 317 3.0 11.0 0.00 0.00 0.00 37 1010.7
20260503190815 56 202 4.0 11.0 0.00 0.00 0.00 37 1010.7
20260503190713 56 198 4.0 11.0 0.00 0.00 0.00 39 1010.7
20260503190615 56 229 4.0 11.0 0.00 0.00 0.00 39 1010.8
20260503190544 56 275 4.0 11.0 0.00 0.00 0.00 36 1010.9
20260503190212 56 260 5.0 13.0 0.00 0.00 0.00 37 1010.8
20260503190113 56 298 4.0 13.0 0.00 0.00 0.00 38 1010.7
20260503190012 56 300 5.0 13.0 0.00 0.00 0.00 37 1010.8
20260503185928 56 264 5.0 13.0 0.00 0.00 0.00 37 1010.8
20260503185712 56 223 5.0 13.0 0.00 0.00 0.00 37 1010.9
20260503185610 56 258 5.0 13.0 0.00 0.00 0.00 38 1010.9
20260503185511 56 260 5.0 13.0 0.00 0.00 0.00 38 1010.9
20260503185411 56 188 5.0 13.0 0.00 0.00 0.00 39 1010.9
20260503185310 56 265 5.0 13.0 0.00 0.00 0.00 38 1010.8
20260503185209 56 241 5.0 13.0 0.00 0.00 0.00 38 1010.8
20260503185110 56 237 5.0 14.0 0.00 0.00 0.00 38 1010.9
20260503185026 56 219 5.0 18.0 0.00 0.00 0.00 37 1010.9
20260503184810 55 236 6.0 18.0 0.00 0.00 0.00 38 1010.9
20260503184727 55 5 6.0 18.0 0.00 0.00 0.00 38 1010.9
20260503184526 55 250 6.0 18.0 0.00 0.00 0.00 38 1011.0
20260503184309 56 262 6.0 18.0 0.00 0.00 0.00 36 1011.0
20260503184207 56 239 6.0 18.0 0.00 0.00 0.00 36 1011.0
20260503184126 56 245 6.0 18.0 0.00 0.00 0.00 35 1011.1
20260503183908 57 259 6.0 14.0 0.00 0.00 0.00 36 1011.0
20260503183809 57 280 5.0 14.0 0.00 0.00 0.00 37 1011.1
20260503183709 56 346 5.0 14.0 0.00 0.00 0.00 39 1011.0
20260503183607 56 9 5.0 14.0 0.00 0.00 0.00 38 1011.0
20260503183524 56 300 5.0 14.0 0.00 0.00 0.00 36 1011.0
20260503183308 56 286 5.0 11.0 0.00 0.00 0.00 38 1011.0
20260503183222 56 277 5.0 11.0 0.00 0.00 0.00 40 1011.0
20260503183005 56 273 4.0 11.0 0.00 0.00 0.00 37 1011.1
20260503182906 56 252 4.0 11.0 0.00 0.00 0.00 37 1011.0
20260503182805 56 243 4.0 11.0 0.00 0.00 0.00 37 1011.1
20260503182731 56 269 4.0 11.0 0.00 0.00 0.00 37 1011.1
20260503182714 56 217 4.0 11.0 0.00 0.00 0.00 39 1011.0
20260503182139 55 302 4.0 10.0 0.00 0.00 0.00 38 1011.0
20260503181804 55 306 4.0 11.0 0.00 0.00 0.00 38 1011.1
20260503181705 55 252 4.0 11.0 0.00 0.00 0.00 39 1011.2
20260503181604 55 248 4.0 11.0 0.00 0.00 0.00 38 1011.1
20260503181506 56 244 4.0 11.0 0.00 0.00 0.00 39 1011.3
20260503181403 55 246 3.0 11.0 0.00 0.00 0.00 41 1011.1
20260503181304 55 247 4.0 11.0 0.00 0.00 0.00 40 1011.1
20260503181204 55 254 3.0 11.0 0.00 0.00 0.00 41 1011.2
20260503181104 55 265 3.0 11.0 0.00 0.00 0.00 40 1011.2
20260503181005 55 246 4.0 11.0 0.00 0.00 0.00 40 1011.0
20260503180905 55 250 4.0 15.0 0.00 0.00 0.00 39 1011.0
20260503180801 55 297 4.0 15.0 0.00 0.00 0.00 39 1011.2
20260503180719 55 254 3.0 15.0 0.00 0.00 0.00 42 1011.0
20260503180501 55 236 4.0 15.0 0.00 0.00 0.00 43 1011.1
20260503180420 55 236 4.0 15.0 0.00 0.00 0.00 43 1011.1
20260503180235 55 238 4.0 15.0 0.00 0.00 0.00 40 1011.2
20260503175903 54 280 4.0 12.0 0.00 0.00 0.00 42 1011.2
20260503175832 54 263 4.0 15.0 0.00 0.00 0.00 41 1011.1
20260503175500 54 267 5.0 15.0 0.00 0.00 0.00 41 1011.2
20260503175401 54 276 5.0 15.0 0.00 0.00 0.00 41 1011.3
20260503175315 53 304 5.0 15.0 0.00 0.00 0.00 46 1011.2
20260503175100 53 257 5.0 15.0 0.00 0.00 0.00 43 1011.1
20260503174959 53 0 5.0 15.0 0.00 0.00 0.00 47 1011.2
20260503174900 53 281 5.0 15.0 0.00 0.00 0.00 42 1011.2
20260503174759 52 327 5.0 11.0 0.00 0.00 0.00 43 1011.3
20260503174716 52 240 4.0 11.0 0.00 0.00 0.00 41 1011.2
20260503174500 52 250 4.0 10.0 0.00 0.00 0.00 42 1011.3
20260503174357 52 240 4.0 10.0 0.00 0.00 0.00 42 1011.4
20260503174300 53 238 4.0 10.0 0.00 0.00 0.00 42 1011.4
20260503174214 53 263 4.0 10.0 0.00 0.00 0.00 42 1011.3
20260503173957 52 234 4.0 10.0 0.00 0.00 0.00 44 1011.4
20260503173858 52 253 4.0 10.0 0.00 0.00 0.00 47 1011.5
20260503173758 52 271 4.0 13.0 0.00 0.00 0.00 45 1011.5
20260503173727 52 268 5.0 14.0 0.00 0.00 0.00 44 1011.5
20260503173354 52 355 5.0 14.0 0.00 0.00 0.00 43 1011.5
20260503173254 52 351 5.0 14.0 0.00 0.00 0.00 43 1011.6
20260503173154 52 305 5.0 14.0 0.00 0.00 0.00 45 1011.5
20260503173110 51 289 5.0 14.0 0.00 0.00 0.00 44 1011.5
20260503172853 52 248 5.0 14.0 0.00 0.00 0.00 43 1011.5
20260503172755 52 248 4.0 14.0 0.00 0.00 0.00 44 1011.5
20260503172654 52 228 4.0 10.0 0.00 0.00 0.00 44 1011.5
20260503172553 52 277 4.0 10.0 0.00 0.00 0.00 45 1011.5
20260503172453 52 267 4.0 10.0 0.00 0.00 0.00 45 1011.5
20260503172354 51 254 4.0 10.0 0.00 0.00 0.00 44 1011.5
20260503172251 51 240 4.0 10.0 0.00 0.00 0.00 44 1011.5
20260503172153 51 350 4.0 10.0 0.00 0.00 0.00 44 1011.5
20260503172108 51 253 4.0 10.0 0.00 0.00 0.00 45 1011.7
20260503171852 51 253 5.0 14.0 0.00 0.00 0.00 45 1011.7
20260503171751 51 253 5.0 14.0 0.00 0.00 0.00 45 1011.6
20260503171651 51 330 5.0 14.0 0.00 0.00 0.00 47 1011.7
20260503171553 51 279 5.0 14.0 0.00 0.00 0.00 46 1011.6
20260503171449 51 279 6.0 14.0 0.00 0.00 0.00 46 1011.6
20260503171351 51 280 6.0 14.0 0.00 0.00 0.00 44 1011.6
20260503171249 51 261 6.0 14.0 0.00 0.00 0.00 44 1011.6
20260503171147 51 344 7.0 14.0 0.00 0.00 0.00 44 1011.7
20260503171048 51 244 7.0 14.0 0.00 0.00 0.00 43 1011.8
20260503171003 51 304 6.0 14.0 0.00 0.00 0.00 44 1011.7
20260503170744 52 246 6.0 14.0 0.00 0.00 0.00 44 1011.8
20260503170644 52 292 6.0 14.0 0.00 0.00 0.00 45 1011.8
20260503170544 52 237 5.0 14.0 0.00 0.00 0.00 44 1011.8
20260503170458 52 328 5.0 14.0 0.00 0.00 0.00 46 1011.8
20260503170242 52 281 5.0 13.0 0.00 0.00 0.00 45 1011.8
20260503170224 51 246 4.0 13.0 0.00 0.00 0.00 45 1011.9
20260503160215 51 306 5.0 14.0 0.00 0.00 0.00 47 1012.1
20260503160116 50 287 5.0 14.0 0.00 0.00 0.00 48 1012.1
20260503150657 49 270 2.0 10.0 0.00 0.00 0.00 49 1012.3
20260503150557 49 316 2.0 9.0 0.00 0.00 0.00 52 1012.1
20260503150457 49 251 2.0 9.0 0.00 0.00 0.00 51 1012.1
20260503150430 49 244 2.0 9.0 0.00 0.00 0.00 50 1012.2